sensor_id;sensor_type;location;lat;lon;timestamp;P1;durP1;ratioP1;P2;durP2;ratioP2
23676;SDS011;31493;49.058;12.190;2023-04-25T00:00:27;3.42;;;2.45;;
23676;SDS011;31493;49.058;12.190;2023-04-25T00:02:54;3.13;;;2.25;;
23676;SDS011;31493;49.058;12.190;2023-04-25T00:05:22;4.50;;;2.83;;
23676;SDS011;31493;49.058;12.190;2023-04-25T00:07:50;3.97;;;2.40;;
23676;SDS011;31493;49.058;12.190;2023-04-25T00:10:17;4.80;;;2.30;;
23676;SDS011;31493;49.058;12.190;2023-04-25T00:12:45;3.50;;;2.47;;
23676;SDS011;31493;49.058;12.190;2023-04-25T00:15:13;7.03;;;2.65;;
23676;SDS011;31493;49.058;12.190;2023-04-25T00:17:40;3.80;;;2.40;;
23676;SDS011;31493;49.058;12.190;2023-04-25T00:20:08;5.10;;;2.53;;
23676;SDS011;31493;49.058;12.190;2023-04-25T00:22:36;5.53;;;2.97;;
23676;SDS011;31493;49.058;12.190;2023-04-25T00:25:04;4.53;;;2.25;;
23676;SDS011;31493;49.058;12.190;2023-04-25T00:27:31;3.00;;;2.50;;
23676;SDS011;31493;49.058;12.190;2023-04-25T00:30:00;3.13;;;2.42;;
23676;SDS011;31493;49.058;12.190;2023-04-25T00:32:27;8.73;;;2.50;;
23676;SDS011;31493;49.058;12.190;2023-04-25T00:34:54;3.97;;;2.58;;
23676;SDS011;31493;49.058;12.190;2023-04-25T00:37:23;6.43;;;2.80;;
23676;SDS011;31493;49.058;12.190;2023-04-25T00:39:50;4.07;;;2.40;;
23676;SDS011;31493;49.058;12.190;2023-04-25T00:42:19;4.80;;;2.25;;
23676;SDS011;31493;49.058;12.190;2023-04-25T00:44:46;7.18;;;2.50;;
23676;SDS011;31493;49.058;12.190;2023-04-25T00:47:15;3.10;;;2.10;;
23676;SDS011;31493;49.058;12.190;2023-04-25T00:49:42;3.53;;;2.55;;
23676;SDS011;31493;49.058;12.190;2023-04-25T00:52:10;4.18;;;2.42;;
23676;SDS011;31493;49.058;12.190;2023-04-25T00:54:37;3.83;;;2.50;;
23676;SDS011;31493;49.058;12.190;2023-04-25T00:57:04;3.85;;;2.50;;
23676;SDS011;31493;49.058;12.190;2023-04-25T00:59:32;4.65;;;2.50;;
23676;SDS011;31493;49.058;12.190;2023-04-25T01:02:00;3.50;;;2.40;;
23676;SDS011;31493;49.058;12.190;2023-04-25T01:04:28;5.05;;;2.58;;
23676;SDS011;31493;49.058;12.190;2023-04-25T01:06:55;7.85;;;2.60;;
23676;SDS011;31493;49.058;12.190;2023-04-25T01:09:23;3.97;;;2.30;;
23676;SDS011;31493;49.058;12.190;2023-04-25T01:11:50;5.75;;;2.97;;
23676;SDS011;31493;49.058;12.190;2023-04-25T01:14:18;3.42;;;2.40;;
23676;SDS011;31493;49.058;12.190;2023-04-25T01:16:45;4.22;;;2.83;;
23676;SDS011;31493;49.058;12.190;2023-04-25T01:19:12;3.45;;;2.58;;
23676;SDS011;31493;49.058;12.190;2023-04-25T01:21:45;5.65;;;2.80;;
23676;SDS011;31493;49.058;12.190;2023-04-25T01:24:12;3.38;;;2.70;;
23676;SDS011;31493;49.058;12.190;2023-04-25T01:26:40;5.20;;;3.03;;
23676;SDS011;31493;49.058;12.190;2023-04-25T01:29:15;3.42;;;2.85;;
23676;SDS011;31493;49.058;12.190;2023-04-25T01:31:42;4.78;;;3.20;;
23676;SDS011;31493;49.058;12.190;2023-04-25T01:34:09;3.90;;;2.85;;
23676;SDS011;31493;49.058;12.190;2023-04-25T01:36:36;4.88;;;2.80;;
23676;SDS011;31493;49.058;12.190;2023-04-25T01:39:05;3.88;;;2.75;;
23676;SDS011;31493;49.058;12.190;2023-04-25T01:41:33;6.22;;;3.17;;
23676;SDS011;31493;49.058;12.190;2023-04-25T01:44:01;5.90;;;3.67;;
23676;SDS011;31493;49.058;12.190;2023-04-25T01:46:28;4.93;;;3.30;;
23676;SDS011;31493;49.058;12.190;2023-04-25T01:48:56;4.87;;;3.17;;
23676;SDS011;31493;49.058;12.190;2023-04-25T01:51:23;5.78;;;3.05;;
23676;SDS011;31493;49.058;12.190;2023-04-25T01:53:50;4.68;;;3.05;;
23676;SDS011;31493;49.058;12.190;2023-04-25T01:56:19;3.70;;;2.90;;
23676;SDS011;31493;49.058;12.190;2023-04-25T01:58:46;5.15;;;3.25;;
23676;SDS011;31493;49.058;12.190;2023-04-25T02:01:13;3.95;;;3.05;;
23676;SDS011;31493;49.058;12.190;2023-04-25T02:03:40;5.45;;;3.10;;
23676;SDS011;31493;49.058;12.190;2023-04-25T02:06:07;7.95;;;3.30;;
23676;SDS011;31493;49.058;12.190;2023-04-25T02:08:34;4.45;;;3.40;;
23676;SDS011;31493;49.058;12.190;2023-04-25T02:11:02;6.97;;;3.50;;
23676;SDS011;31493;49.058;12.190;2023-04-25T02:13:31;6.25;;;3.45;;
23676;SDS011;31493;49.058;12.190;2023-04-25T02:15:58;4.10;;;3.33;;
23676;SDS011;31493;49.058;12.190;2023-04-25T02:18:25;6.07;;;3.60;;
23676;SDS011;31493;49.058;12.190;2023-04-25T02:20:52;6.25;;;3.83;;
23676;SDS011;31493;49.058;12.190;2023-04-25T02:23:19;5.50;;;3.40;;
23676;SDS011;31493;49.058;12.190;2023-04-25T02:25:47;4.72;;;3.40;;
23676;SDS011;31493;49.058;12.190;2023-04-25T02:28:15;5.40;;;3.47;;
23676;SDS011;31493;49.058;12.190;2023-04-25T02:30:43;4.97;;;3.75;;
23676;SDS011;31493;49.058;12.190;2023-04-25T02:33:10;4.85;;;3.60;;
23676;SDS011;31493;49.058;12.190;2023-04-25T02:35:37;4.90;;;3.78;;
23676;SDS011;31493;49.058;12.190;2023-04-25T02:38:04;5.30;;;3.67;;
23676;SDS011;31493;49.058;12.190;2023-04-25T02:40:31;5.20;;;3.70;;
23676;SDS011;31493;49.058;12.190;2023-04-25T02:42:58;7.65;;;3.88;;
23676;SDS011;31493;49.058;12.190;2023-04-25T02:45:25;5.60;;;3.05;;
23676;SDS011;31493;49.058;12.190;2023-04-25T02:47:54;4.53;;;4.05;;
23676;SDS011;31493;49.058;12.190;2023-04-25T02:50:21;7.93;;;3.70;;
23676;SDS011;31493;49.058;12.190;2023-04-25T02:52:48;10.13;;;4.35;;
23676;SDS011;31493;49.058;12.190;2023-04-25T02:55:15;6.80;;;3.92;;
23676;SDS011;31493;49.058;12.190;2023-04-25T02:57:42;4.88;;;3.72;;
23676;SDS011;31493;49.058;12.190;2023-04-25T03:00:09;5.65;;;3.97;;
23676;SDS011;31493;49.058;12.190;2023-04-25T03:02:39;4.40;;;3.70;;
23676;SDS011;31493;49.058;12.190;2023-04-25T03:05:08;12.82;;;4.00;;
23676;SDS011;31493;49.058;12.190;2023-04-25T03:07:35;5.88;;;3.95;;
23676;SDS011;31493;49.058;12.190;2023-04-25T03:10:02;6.53;;;3.83;;
23676;SDS011;31493;49.058;12.190;2023-04-25T03:14:58;5.70;;;3.83;;
23676;SDS011;31493;49.058;12.190;2023-04-25T03:17:25;4.82;;;3.63;;
23676;SDS011;31493;49.058;12.190;2023-04-25T03:19:52;5.85;;;3.75;;
23676;SDS011;31493;49.058;12.190;2023-04-25T03:22:20;8.65;;;3.78;;
23676;SDS011;31493;49.058;12.190;2023-04-25T03:24:48;4.75;;;3.78;;
23676;SDS011;31493;49.058;12.190;2023-04-25T03:27:16;6.07;;;3.80;;
23676;SDS011;31493;49.058;12.190;2023-04-25T03:29:43;11.20;;;3.80;;
23676;SDS011;31493;49.058;12.190;2023-04-25T03:32:10;4.32;;;3.67;;
23676;SDS011;31493;49.058;12.190;2023-04-25T03:34:37;5.05;;;3.70;;
23676;SDS011;31493;49.058;12.190;2023-04-25T03:37:04;6.45;;;3.70;;
23676;SDS011;31493;49.058;12.190;2023-04-25T03:39:32;5.47;;;3.65;;
23676;SDS011;31493;49.058;12.190;2023-04-25T03:41:59;5.32;;;4.00;;
23676;SDS011;31493;49.058;12.190;2023-04-25T03:44:26;6.18;;;3.70;;
23676;SDS011;31493;49.058;12.190;2023-04-25T03:46:53;4.65;;;3.55;;
23676;SDS011;31493;49.058;12.190;2023-04-25T03:49:20;7.80;;;3.72;;
23676;SDS011;31493;49.058;12.190;2023-04-25T03:51:47;6.45;;;3.42;;
23676;SDS011;31493;49.058;12.190;2023-04-25T03:54:14;8.18;;;3.38;;
23676;SDS011;31493;49.058;12.190;2023-04-25T03:56:42;4.00;;;3.38;;
23676;SDS011;31493;49.058;12.190;2023-04-25T03:59:09;5.97;;;3.08;;
23676;SDS011;31493;49.058;12.190;2023-04-25T04:01:36;5.38;;;3.55;;
23676;SDS011;31493;49.058;12.190;2023-04-25T04:04:03;6.38;;;3.30;;
23676;SDS011;31493;49.058;12.190;2023-04-25T04:06:30;4.88;;;3.28;;
23676;SDS011;31493;49.058;12.190;2023-04-25T04:08:58;7.70;;;3.60;;
23676;SDS011;31493;49.058;12.190;2023-04-25T04:11:25;6.25;;;3.58;;
23676;SDS011;31493;49.058;12.190;2023-04-25T04:13:54;6.18;;;4.03;;
23676;SDS011;31493;49.058;12.190;2023-04-25T04:16:21;4.65;;;3.40;;
23676;SDS011;31493;49.058;12.190;2023-04-25T04:18:48;4.78;;;3.33;;
23676;SDS011;31493;49.058;12.190;2023-04-25T04:21:15;5.60;;;3.40;;
23676;SDS011;31493;49.058;12.190;2023-04-25T04:23:42;5.80;;;3.28;;
23676;SDS011;31493;49.058;12.190;2023-04-25T04:26:09;3.67;;;2.80;;
23676;SDS011;31493;49.058;12.190;2023-04-25T04:28:36;5.28;;;3.67;;
23676;SDS011;31493;49.058;12.190;2023-04-25T04:31:05;4.22;;;3.20;;
23676;SDS011;31493;49.058;12.190;2023-04-25T04:33:33;5.28;;;3.30;;
23676;SDS011;31493;49.058;12.190;2023-04-25T04:36:00;4.95;;;3.10;;
23676;SDS011;31493;49.058;12.190;2023-04-25T04:38:28;4.07;;;3.20;;
23676;SDS011;31493;49.058;12.190;2023-04-25T04:40:56;4.97;;;3.10;;
23676;SDS011;31493;49.058;12.190;2023-04-25T04:43:23;5.35;;;3.10;;
23676;SDS011;31493;49.058;12.190;2023-04-25T04:45:50;5.78;;;3.25;;
23676;SDS011;31493;49.058;12.190;2023-04-25T04:48:19;6.35;;;3.25;;
23676;SDS011;31493;49.058;12.190;2023-04-25T04:50:46;6.00;;;3.28;;
23676;SDS011;31493;49.058;12.190;2023-04-25T04:53:14;5.03;;;2.90;;
23676;SDS011;31493;49.058;12.190;2023-04-25T04:55:41;7.93;;;3.53;;
23676;SDS011;31493;49.058;12.190;2023-04-25T04:58:08;5.20;;;3.13;;
23676;SDS011;31493;49.058;12.190;2023-04-25T05:00:35;5.80;;;3.20;;
23676;SDS011;31493;49.058;12.190;2023-04-25T05:03:02;4.68;;;3.15;;
23676;SDS011;31493;49.058;12.190;2023-04-25T05:05:32;4.30;;;2.78;;
23676;SDS011;31493;49.058;12.190;2023-04-25T05:07:59;3.83;;;3.20;;
23676;SDS011;31493;49.058;12.190;2023-04-25T05:10:26;6.10;;;3.40;;
23676;SDS011;31493;49.058;12.190;2023-04-25T05:12:53;5.22;;;2.95;;
23676;SDS011;31493;49.058;12.190;2023-04-25T05:15:20;4.68;;;3.20;;
23676;SDS011;31493;49.058;12.190;2023-04-25T05:17:47;7.53;;;3.35;;
23676;SDS011;31493;49.058;12.190;2023-04-25T05:20:14;5.63;;;3.17;;
23676;SDS011;31493;49.058;12.190;2023-04-25T05:22:43;7.10;;;3.70;;
23676;SDS011;31493;49.058;12.190;2023-04-25T05:25:10;5.10;;;3.90;;
23676;SDS011;31493;49.058;12.190;2023-04-25T05:27:37;4.60;;;3.78;;
23676;SDS011;31493;49.058;12.190;2023-04-25T05:30:05;7.22;;;3.85;;
23676;SDS011;31493;49.058;12.190;2023-04-25T05:32:32;9.23;;;4.22;;
23676;SDS011;31493;49.058;12.190;2023-04-25T05:35:00;7.35;;;4.30;;
23676;SDS011;31493;49.058;12.190;2023-04-25T05:37:27;7.35;;;3.80;;
23676;SDS011;31493;49.058;12.190;2023-04-25T05:42:24;5.80;;;4.10;;
23676;SDS011;31493;49.058;12.190;2023-04-25T05:44:51;8.25;;;4.85;;
23676;SDS011;31493;49.058;12.190;2023-04-25T05:47:18;6.53;;;5.03;;
23676;SDS011;31493;49.058;12.190;2023-04-25T05:49:45;6.43;;;5.05;;
23676;SDS011;31493;49.058;12.190;2023-04-25T05:52:12;7.72;;;4.75;;
23676;SDS011;31493;49.058;12.190;2023-04-25T05:54:40;7.90;;;4.97;;
23676;SDS011;31493;49.058;12.190;2023-04-25T05:57:17;7.70;;;4.40;;
23676;SDS011;31493;49.058;12.190;2023-04-25T05:59:46;7.85;;;4.80;;
23676;SDS011;31493;49.058;12.190;2023-04-25T06:02:13;10.25;;;4.88;;
23676;SDS011;31493;49.058;12.190;2023-04-25T06:04:40;6.75;;;4.60;;
23676;SDS011;31493;49.058;12.190;2023-04-25T06:07:07;6.15;;;4.38;;
23676;SDS011;31493;49.058;12.190;2023-04-25T06:09:34;8.13;;;4.80;;
23676;SDS011;31493;49.058;12.190;2023-04-25T06:12:01;5.70;;;4.32;;
23676;SDS011;31493;49.058;12.190;2023-04-25T06:14:30;6.97;;;4.47;;
23676;SDS011;31493;49.058;12.190;2023-04-25T06:16:57;4.88;;;3.75;;
23676;SDS011;31493;49.058;12.190;2023-04-25T06:19:24;6.13;;;4.20;;
23676;SDS011;31493;49.058;12.190;2023-04-25T06:21:51;5.95;;;4.00;;
23676;SDS011;31493;49.058;12.190;2023-04-25T06:24:18;7.88;;;4.40;;
23676;SDS011;31493;49.058;12.190;2023-04-25T06:26:45;7.55;;;4.00;;
23676;SDS011;31493;49.058;12.190;2023-04-25T06:29:13;7.13;;;3.83;;
23676;SDS011;31493;49.058;12.190;2023-04-25T06:31:41;5.70;;;3.65;;
23676;SDS011;31493;49.058;12.190;2023-04-25T06:34:08;4.93;;;3.28;;
23676;SDS011;31493;49.058;12.190;2023-04-25T06:36:35;4.68;;;3.63;;
23676;SDS011;31493;49.058;12.190;2023-04-25T06:39:02;8.30;;;4.10;;
23676;SDS011;31493;49.058;12.190;2023-04-25T06:41:29;5.65;;;3.88;;
23676;SDS011;31493;49.058;12.190;2023-04-25T06:43:56;5.10;;;3.40;;
23676;SDS011;31493;49.058;12.190;2023-04-25T06:46:23;7.30;;;3.67;;
23676;SDS011;31493;49.058;12.190;2023-04-25T06:48:52;5.20;;;3.25;;
23676;SDS011;31493;49.058;12.190;2023-04-25T06:51:19;5.82;;;3.50;;
23676;SDS011;31493;49.058;12.190;2023-04-25T06:53:46;5.35;;;3.00;;
23676;SDS011;31493;49.058;12.190;2023-04-25T06:56:13;9.07;;;3.60;;
23676;SDS011;31493;49.058;12.190;2023-04-25T06:58:40;5.78;;;3.60;;
23676;SDS011;31493;49.058;12.190;2023-04-25T07:01:07;6.35;;;3.50;;
23676;SDS011;31493;49.058;12.190;2023-04-25T07:03:34;4.80;;;3.03;;
23676;SDS011;31493;49.058;12.190;2023-04-25T07:06:04;6.47;;;3.38;;
23676;SDS011;31493;49.058;12.190;2023-04-25T07:10:58;6.93;;;3.80;;
23676;SDS011;31493;49.058;12.190;2023-04-25T07:13:25;5.13;;;3.60;;
23676;SDS011;31493;49.058;12.190;2023-04-25T07:15:52;5.35;;;3.40;;
23676;SDS011;31493;49.058;12.190;2023-04-25T07:18:19;3.75;;;3.17;;
23676;SDS011;31493;49.058;12.190;2023-04-25T07:20:46;5.70;;;3.20;;
23676;SDS011;31493;49.058;12.190;2023-04-25T07:23:14;4.43;;;3.13;;
23676;SDS011;31493;49.058;12.190;2023-04-25T07:25:41;7.22;;;3.42;;
23676;SDS011;31493;49.058;12.190;2023-04-25T07:28:08;5.00;;;3.20;;
23676;SDS011;31493;49.058;12.190;2023-04-25T07:30:35;5.90;;;3.63;;
23676;SDS011;31493;49.058;12.190;2023-04-25T07:33:02;4.93;;;3.42;;
23676;SDS011;31493;49.058;12.190;2023-04-25T07:35:29;6.03;;;3.03;;
23676;SDS011;31493;49.058;12.190;2023-04-25T07:37:56;4.75;;;3.30;;
23676;SDS011;31493;49.058;12.190;2023-04-25T07:40:25;4.22;;;3.20;;
23676;SDS011;31493;49.058;12.190;2023-04-25T07:42:52;3.67;;;2.97;;
23676;SDS011;31493;49.058;12.190;2023-04-25T07:45:19;6.35;;;3.28;;
23676;SDS011;31493;49.058;12.190;2023-04-25T07:47:46;4.97;;;3.05;;
23676;SDS011;31493;49.058;12.190;2023-04-25T07:50:13;5.80;;;3.38;;
23676;SDS011;31493;49.058;12.190;2023-04-25T07:52:40;4.28;;;3.13;;
23676;SDS011;31493;49.058;12.190;2023-04-25T07:55:08;4.20;;;2.58;;
23676;SDS011;31493;49.058;12.190;2023-04-25T07:57:36;4.75;;;2.78;;
23676;SDS011;31493;49.058;12.190;2023-04-25T08:00:04;3.05;;;2.75;;
23676;SDS011;31493;49.058;12.190;2023-04-25T08:02:34;3.65;;;2.78;;
23676;SDS011;31493;49.058;12.190;2023-04-25T08:05:02;3.63;;;2.83;;
23676;SDS011;31493;49.058;12.190;2023-04-25T08:07:29;4.50;;;2.80;;
23676;SDS011;31493;49.058;12.190;2023-04-25T08:09:56;3.78;;;2.90;;
23676;SDS011;31493;49.058;12.190;2023-04-25T08:12:23;4.88;;;3.05;;
23676;SDS011;31493;49.058;12.190;2023-04-25T08:14:51;6.30;;;3.00;;
23676;SDS011;31493;49.058;12.190;2023-04-25T08:17:18;4.78;;;2.97;;
23676;SDS011;31493;49.058;12.190;2023-04-25T08:19:45;4.90;;;2.85;;
23676;SDS011;31493;49.058;12.190;2023-04-25T08:22:12;3.03;;;2.60;;
23676;SDS011;31493;49.058;12.190;2023-04-25T08:24:40;5.03;;;2.63;;
23676;SDS011;31493;49.058;12.190;2023-04-25T08:27:07;3.13;;;2.28;;
23676;SDS011;31493;49.058;12.190;2023-04-25T08:29:35;2.67;;;2.08;;
23676;SDS011;31493;49.058;12.190;2023-04-25T08:32:04;3.83;;;2.13;;
23676;SDS011;31493;49.058;12.190;2023-04-25T08:34:31;4.00;;;2.00;;
23676;SDS011;31493;49.058;12.190;2023-04-25T08:36:58;3.13;;;2.13;;
23676;SDS011;31493;49.058;12.190;2023-04-25T08:39:25;4.95;;;2.03;;
23676;SDS011;31493;49.058;12.190;2023-04-25T08:41:52;2.70;;;2.00;;
23676;SDS011;31493;49.058;12.190;2023-04-25T08:44:19;3.72;;;2.30;;
23676;SDS011;31493;49.058;12.190;2023-04-25T08:46:47;2.38;;;2.08;;
23676;SDS011;31493;49.058;12.190;2023-04-25T08:49:17;2.63;;;2.10;;
23676;SDS011;31493;49.058;12.190;2023-04-25T08:51:45;4.43;;;2.20;;
23676;SDS011;31493;49.058;12.190;2023-04-25T08:54:15;3.22;;;2.50;;
23676;SDS011;31493;49.058;12.190;2023-04-25T08:56:43;3.03;;;2.30;;
23676;SDS011;31493;49.058;12.190;2023-04-25T08:59:11;3.38;;;2.70;;
23676;SDS011;31493;49.058;12.190;2023-04-25T09:01:39;2.90;;;2.58;;
23676;SDS011;31493;49.058;12.190;2023-04-25T09:04:06;3.97;;;2.50;;
23676;SDS011;31493;49.058;12.190;2023-04-25T09:06:34;3.42;;;2.38;;
23676;SDS011;31493;49.058;12.190;2023-04-25T09:09:02;3.28;;;2.10;;
23676;SDS011;31493;49.058;12.190;2023-04-25T09:11:31;6.15;;;3.35;;
23676;SDS011;31493;49.058;12.190;2023-04-25T09:14:12;3.28;;;2.65;;
23676;SDS011;31493;49.058;12.190;2023-04-25T09:16:59;3.30;;;2.63;;
23676;SDS011;31493;49.058;12.190;2023-04-25T09:19:28;3.65;;;2.15;;
23676;SDS011;31493;49.058;12.190;2023-04-25T09:21:58;2.80;;;2.20;;
23676;SDS011;31493;49.058;12.190;2023-04-25T09:24:33;3.90;;;2.35;;
23676;SDS011;31493;49.058;12.190;2023-04-25T09:27:05;3.92;;;2.70;;
23676;SDS011;31493;49.058;12.190;2023-04-25T09:29:33;2.30;;;2.10;;
23676;SDS011;31493;49.058;12.190;2023-04-25T09:32:11;2.20;;;2.00;;
23676;SDS011;31493;49.058;12.190;2023-04-25T09:34:43;2.40;;;2.20;;
23676;SDS011;31493;49.058;12.190;2023-04-25T09:37:18;2.50;;;2.30;;
23676;SDS011;31493;49.058;12.190;2023-04-25T09:39:46;3.60;;;2.50;;
23676;SDS011;31493;49.058;12.190;2023-04-25T09:42:14;2.70;;;2.28;;
23676;SDS011;31493;49.058;12.190;2023-04-25T09:44:42;3.40;;;3.00;;
23676;SDS011;31493;49.058;12.190;2023-04-25T09:47:11;3.13;;;2.40;;
23676;SDS011;31493;49.058;12.190;2023-04-25T09:49:39;3.17;;;2.70;;
23676;SDS011;31493;49.058;12.190;2023-04-25T09:52:13;3.30;;;2.03;;
23676;SDS011;31493;49.058;12.190;2023-04-25T09:54:42;2.75;;;2.30;;
23676;SDS011;31493;49.058;12.190;2023-04-25T09:57:11;2.60;;;1.80;;
23676;SDS011;31493;49.058;12.190;2023-04-25T10:02:11;1.50;;;1.40;;
23676;SDS011;31493;49.058;12.190;2023-04-25T10:04:39;1.38;;;1.25;;
23676;SDS011;31493;49.058;12.190;2023-04-25T10:07:08;0.82;;;0.82;;
23676;SDS011;31493;49.058;12.190;2023-04-25T10:09:36;1.80;;;1.20;;
23676;SDS011;31493;49.058;12.190;2023-04-25T10:12:06;1.70;;;1.20;;
23676;SDS011;31493;49.058;12.190;2023-04-25T10:14:33;0.85;;;0.82;;
23676;SDS011;31493;49.058;12.190;2023-04-25T10:17:01;2.85;;;1.10;;
23676;SDS011;31493;49.058;12.190;2023-04-25T10:19:28;2.15;;;1.65;;
23676;SDS011;31493;49.058;12.190;2023-04-25T10:21:58;4.00;;;2.38;;
23676;SDS011;31493;49.058;12.190;2023-04-25T10:24:31;4.05;;;2.58;;
23676;SDS011;31493;49.058;12.190;2023-04-25T10:26:58;4.13;;;3.03;;
23676;SDS011;31493;49.058;12.190;2023-04-25T10:29:28;3.00;;;2.10;;
23676;SDS011;31493;49.058;12.190;2023-04-25T10:31:55;4.45;;;2.80;;
23676;SDS011;31493;49.058;12.190;2023-04-25T10:34:24;5.45;;;3.22;;
23676;SDS011;31493;49.058;12.190;2023-04-25T10:37:03;5.30;;;3.78;;
23676;SDS011;31493;49.058;12.190;2023-04-25T10:39:30;4.07;;;3.22;;
23676;SDS011;31493;49.058;12.190;2023-04-25T10:41:59;5.05;;;3.17;;
23676;SDS011;31493;49.058;12.190;2023-04-25T10:44:30;4.22;;;2.75;;
23676;SDS011;31493;49.058;12.190;2023-04-25T10:46:59;6.30;;;3.28;;
23676;SDS011;31493;49.058;12.190;2023-04-25T10:49:29;3.88;;;2.88;;
23676;SDS011;31493;49.058;12.190;2023-04-25T10:54:41;7.57;;;3.28;;
23676;SDS011;31493;49.058;12.190;2023-04-25T10:59:59;7.50;;;2.80;;
23676;SDS011;31493;49.058;12.190;2023-04-25T11:02:28;3.90;;;3.15;;
23676;SDS011;31493;49.058;12.190;2023-04-25T11:04:56;3.40;;;2.83;;
23676;SDS011;31493;49.058;12.190;2023-04-25T11:07:26;3.08;;;2.60;;
23676;SDS011;31493;49.058;12.190;2023-04-25T11:10:02;2.95;;;2.10;;
23676;SDS011;31493;49.058;12.190;2023-04-25T11:12:30;3.33;;;2.60;;
23676;SDS011;31493;49.058;12.190;2023-04-25T11:15:00;3.28;;;2.53;;
23676;SDS011;31493;49.058;12.190;2023-04-25T11:17:28;3.75;;;2.40;;
23676;SDS011;31493;49.058;12.190;2023-04-25T11:19:56;3.88;;;2.47;;
23676;SDS011;31493;49.058;12.190;2023-04-25T11:22:23;2.72;;;2.08;;
23676;SDS011;31493;49.058;12.190;2023-04-25T11:24:50;4.70;;;2.13;;
23676;SDS011;31493;49.058;12.190;2023-04-25T11:27:17;3.67;;;2.20;;
23676;SDS011;31493;49.058;12.190;2023-04-25T11:29:44;2.60;;;2.10;;
23676;SDS011;31493;49.058;12.190;2023-04-25T11:32:15;5.05;;;2.10;;
23676;SDS011;31493;49.058;12.190;2023-04-25T11:34:44;3.35;;;2.05;;
23676;SDS011;31493;49.058;12.190;2023-04-25T11:37:11;3.13;;;1.90;;
23676;SDS011;31493;49.058;12.190;2023-04-25T11:39:42;3.55;;;1.90;;
23676;SDS011;31493;49.058;12.190;2023-04-25T11:42:10;2.47;;;1.73;;
23676;SDS011;31493;49.058;12.190;2023-04-25T11:44:37;6.90;;;1.77;;
23676;SDS011;31493;49.058;12.190;2023-04-25T11:47:05;3.22;;;1.90;;
23676;SDS011;31493;49.058;12.190;2023-04-25T11:49:33;4.93;;;2.00;;
23676;SDS011;31493;49.058;12.190;2023-04-25T11:52:02;4.00;;;1.90;;
23676;SDS011;31493;49.058;12.190;2023-04-25T11:54:29;2.83;;;1.88;;
23676;SDS011;31493;49.058;12.190;2023-04-25T11:56:56;4.75;;;1.80;;
23676;SDS011;31493;49.058;12.190;2023-04-25T11:59:24;2.17;;;1.88;;
23676;SDS011;31493;49.058;12.190;2023-04-25T12:01:52;3.38;;;1.80;;
23676;SDS011;31493;49.058;12.190;2023-04-25T12:04:20;2.75;;;1.90;;
23676;SDS011;31493;49.058;12.190;2023-04-25T12:06:49;4.38;;;1.73;;
23676;SDS011;31493;49.058;12.190;2023-04-25T12:09:18;3.67;;;1.60;;
23676;SDS011;31493;49.058;12.190;2023-04-25T12:11:48;3.38;;;1.70;;
23676;SDS011;31493;49.058;12.190;2023-04-25T12:14:21;2.58;;;1.70;;
23676;SDS011;31493;49.058;12.190;2023-04-25T12:16:49;2.08;;;1.80;;
23676;SDS011;31493;49.058;12.190;2023-04-25T12:19:17;3.50;;;2.15;;
23676;SDS011;31493;49.058;12.190;2023-04-25T12:21:45;3.72;;;2.08;;
23676;SDS011;31493;49.058;12.190;2023-04-25T12:24:14;3.80;;;2.10;;
23676;SDS011;31493;49.058;12.190;2023-04-25T12:26:51;3.05;;;1.90;;
23676;SDS011;31493;49.058;12.190;2023-04-25T12:29:20;3.40;;;2.00;;
23676;SDS011;31493;49.058;12.190;2023-04-25T12:31:50;3.22;;;2.17;;
23676;SDS011;31493;49.058;12.190;2023-04-25T12:34:18;3.75;;;1.92;;
23676;SDS011;31493;49.058;12.190;2023-04-25T12:36:46;3.83;;;2.22;;
23676;SDS011;31493;49.058;12.190;2023-04-25T12:39:18;3.58;;;2.30;;
23676;SDS011;31493;49.058;12.190;2023-04-25T12:41:47;3.92;;;2.65;;
23676;SDS011;31493;49.058;12.190;2023-04-25T12:44:15;4.13;;;2.20;;
23676;SDS011;31493;49.058;12.190;2023-04-25T12:46:42;3.08;;;2.25;;
23676;SDS011;31493;49.058;12.190;2023-04-25T12:49:10;5.20;;;2.20;;
23676;SDS011;31493;49.058;12.190;2023-04-25T12:51:37;3.47;;;2.10;;
23676;SDS011;31493;49.058;12.190;2023-04-25T12:54:07;4.45;;;2.25;;
23676;SDS011;31493;49.058;12.190;2023-04-25T12:56:36;4.78;;;2.47;;
23676;SDS011;31493;49.058;12.190;2023-04-25T12:59:03;4.25;;;2.60;;
23676;SDS011;31493;49.058;12.190;2023-04-25T13:01:30;3.60;;;2.38;;
23676;SDS011;31493;49.058;12.190;2023-04-25T13:03:57;2.70;;;2.33;;
23676;SDS011;31493;49.058;12.190;2023-04-25T13:06:24;2.47;;;2.28;;
23676;SDS011;31493;49.058;12.190;2023-04-25T13:08:51;3.25;;;2.17;;
23676;SDS011;31493;49.058;12.190;2023-04-25T13:11:21;4.05;;;2.08;;
23676;SDS011;31493;49.058;12.190;2023-04-25T13:13:49;2.75;;;1.48;;
23676;SDS011;31493;49.058;12.190;2023-04-25T13:16:16;5.53;;;2.08;;
23676;SDS011;31493;49.058;12.190;2023-04-25T13:18:46;4.30;;;1.80;;
23676;SDS011;31493;49.058;12.190;2023-04-25T13:21:13;3.90;;;2.13;;
23676;SDS011;31493;49.058;12.190;2023-04-25T13:23:40;2.92;;;1.70;;
23676;SDS011;31493;49.058;12.190;2023-04-25T13:26:08;3.63;;;1.58;;
23676;SDS011;31493;49.058;12.190;2023-04-25T13:28:35;3.78;;;1.67;;
23676;SDS011;31493;49.058;12.190;2023-04-25T13:31:04;2.58;;;1.42;;
23676;SDS011;31493;49.058;12.190;2023-04-25T13:33:32;3.38;;;1.80;;
23676;SDS011;31493;49.058;12.190;2023-04-25T13:36:00;4.45;;;1.70;;
23676;SDS011;31493;49.058;12.190;2023-04-25T13:38:27;3.45;;;1.80;;
23676;SDS011;31493;49.058;12.190;2023-04-25T13:40:54;2.92;;;1.70;;
23676;SDS011;31493;49.058;12.190;2023-04-25T13:43:21;4.03;;;1.80;;
23676;SDS011;31493;49.058;12.190;2023-04-25T13:45:49;3.47;;;1.52;;
23676;SDS011;31493;49.058;12.190;2023-04-25T13:48:18;5.05;;;1.70;;
23676;SDS011;31493;49.058;12.190;2023-04-25T13:50:46;2.85;;;1.88;;
23676;SDS011;31493;49.058;12.190;2023-04-25T13:53:13;4.82;;;1.90;;
23676;SDS011;31493;49.058;12.190;2023-04-25T13:55:40;4.50;;;1.90;;
23676;SDS011;31493;49.058;12.190;2023-04-25T13:58:07;2.45;;;1.80;;
23676;SDS011;31493;49.058;12.190;2023-04-25T14:00:35;5.80;;;1.90;;
23676;SDS011;31493;49.058;12.190;2023-04-25T14:03:04;5.32;;;2.05;;
23676;SDS011;31493;49.058;12.190;2023-04-25T14:05:34;3.92;;;1.90;;
23676;SDS011;31493;49.058;12.190;2023-04-25T14:08:04;3.97;;;2.13;;
23676;SDS011;31493;49.058;12.190;2023-04-25T14:10:32;5.47;;;2.20;;
23676;SDS011;31493;49.058;12.190;2023-04-25T14:13:00;3.60;;;2.00;;
23676;SDS011;31493;49.058;12.190;2023-04-25T14:15:31;4.68;;;2.00;;
23676;SDS011;31493;49.058;12.190;2023-04-25T14:17:58;3.95;;;1.88;;
23676;SDS011;31493;49.058;12.190;2023-04-25T14:20:25;3.78;;;1.75;;
23676;SDS011;31493;49.058;12.190;2023-04-25T14:22:54;3.30;;;1.60;;
23676;SDS011;31493;49.058;12.190;2023-04-25T14:25:23;4.88;;;2.03;;
23676;SDS011;31493;49.058;12.190;2023-04-25T14:27:50;7.85;;;3.97;;
23676;SDS011;31493;49.058;12.190;2023-04-25T14:30:17;4.90;;;1.88;;
23676;SDS011;31493;49.058;12.190;2023-04-25T14:32:44;3.10;;;1.70;;
23676;SDS011;31493;49.058;12.190;2023-04-25T14:35:12;3.25;;;1.70;;
23676;SDS011;31493;49.058;12.190;2023-04-25T14:37:39;3.20;;;1.67;;
23676;SDS011;31493;49.058;12.190;2023-04-25T14:40:08;3.63;;;2.08;;
23676;SDS011;31493;49.058;12.190;2023-04-25T14:42:37;4.05;;;1.80;;
23676;SDS011;31493;49.058;12.190;2023-04-25T14:45:05;3.03;;;2.00;;
23676;SDS011;31493;49.058;12.190;2023-04-25T14:47:33;3.47;;;1.90;;
23676;SDS011;31493;49.058;12.190;2023-04-25T14:50:01;3.67;;;1.80;;
23676;SDS011;31493;49.058;12.190;2023-04-25T14:52:29;4.27;;;2.00;;